Time;durP1;ratioP1;P1;durP2;ratioP2;P2;SDS_P1;SDS_P2;PMS_P1;PMS_P2;Temp;Humidity;BMP_temperature;BMP_pressure;BME280_temperature;BME280_humidity;BME280_pressure;Samples;Min_cycle;Max_cycle;Signal;HPM_P1;HPM_P2
2023/10/02 00:01:53;;;;;;;17.73;6.63;;;;;;;21.04;56.17;101980.00;4950371;28;124420;-78
2023/10/02 00:04:24;;;;;;;13.15;5.70;;;;;;;21.02;56.13;101977.44;4954549;28;109280;-79
2023/10/02 00:07:07;;;;;;;13.70;6.20;;;;;;;20.99;56.17;101977.63;4946367;28;108515;-79
2023/10/02 00:09:36;;;;;;;14.25;5.90;;;;;;;20.96;56.32;101983.22;4948476;28;124511;-79
2023/10/02 00:12:11;;;;;;;14.55;6.32;;;;;;;20.94;56.35;101979.78;4950534;28;123484;-78
2023/10/02 00:14:42;;;;;;;14.15;6.13;;;;;;;20.94;56.45;101982.47;4947308;28;110252;-78
2023/10/02 00:17:18;;;;;;;14.95;6.28;;;;;;;20.91;56.48;101980.03;4936352;28;109405;-79
2023/10/02 00:19:49;;;;;;;15.15;5.82;;;;;;;20.88;56.48;101974.84;4948772;28;123868;-78
2023/10/02 00:25:07;;;;;;;13.77;5.68;;;;;;;20.84;56.55;101978.72;4948509;28;108477;-78
2023/10/02 00:27:36;;;;;;;14.48;6.07;;;;;;;20.83;56.61;101977.00;4950545;28;108183;-78
2023/10/02 00:30:07;;;;;;;16.15;6.47;;;;;;;20.80;56.53;101978.94;4951481;28;123800;-78
2023/10/02 00:32:40;;;;;;;16.02;5.80;;;;;;;20.79;56.73;101977.22;4949205;28;123468;-78
2023/10/02 00:35:10;;;;;;;15.52;6.63;;;;;;;20.78;56.69;101978.19;4954158;28;108522;-79
2023/10/02 00:37:44;;;;;;;17.50;6.78;;;;;;;20.78;56.50;101980.88;4954760;28;109538;-78
2023/10/02 00:40:21;;;;;;;14.07;6.47;;;;;;;20.75;56.71;101975.69;4944201;28;124480;-78
2023/10/02 00:42:54;;;;;;;15.25;6.15;;;;;;;20.74;56.69;101968.59;4952296;28;124087;-78
2023/10/02 00:45:24;;;;;;;15.82;6.75;;;;;;;20.72;56.71;101969.66;4962726;28;108346;-78
2023/10/02 00:47:53;;;;;;;14.55;6.22;;;;;;;20.71;56.73;101973.34;4954173;28;109871;-78
2023/10/02 00:50:24;;;;;;;16.20;6.40;;;;;;;20.69;56.89;101969.91;4917659;28;123181;-78
2023/10/02 00:53:03;;;;;;;14.40;5.32;;;;;;;20.67;57.02;101967.31;4935608;28;123505;-79
2023/10/02 00:55:33;;;;;;;16.33;6.38;;;;;;;20.64;56.86;101961.28;4951633;28;109062;-79
2023/10/02 00:58:03;;;;;;;15.65;6.07;;;;;;;20.63;56.83;101960.41;4950070;28;107211;-79
2023/10/02 01:00:37;;;;;;;13.40;6.07;;;;;;;20.59;56.77;101969.66;4950963;28;123333;-80
2023/10/02 01:03:16;;;;;;;15.18;6.30;;;;;;;20.54;56.90;101961.03;4959640;28;123158;-80
2023/10/02 01:05:47;;;;;;;15.70;6.57;;;;;;;20.50;57.04;101967.59;4964763;28;109061;-79
2023/10/02 01:08:42;;;;;;;14.85;6.03;;;;;;;20.45;56.95;101956.28;4975697;28;107612;-79
2023/10/02 01:11:14;;;;;;;16.45;6.32;;;;;;;20.39;56.92;101958.41;4920621;28;123962;-78
2023/10/02 01:13:42;;;;;;;13.48;6.07;;;;;;;20.36;57.14;101955.97;4952852;28;123204;-78
2023/10/02 01:16:09;;;;;;;17.00;6.35;;;;;;;20.33;57.33;101958.84;4956852;28;108195;-79
2023/10/02 01:18:38;;;;;;;16.30;6.55;;;;;;;20.29;57.21;101962.72;4960380;28;107209;-79
2023/10/02 01:21:14;;;;;;;14.38;6.22;;;;;;;20.26;57.31;101952.16;4936880;28;123259;-79
2023/10/02 01:26:43;;;;;;;14.80;6.57;;;;;;;20.19;57.39;101956.22;4944313;28;109599;-79
2023/10/02 01:29:13;;;;;;;15.18;6.43;;;;;;;20.16;57.28;101961.84;4953924;28;108778;-79
2023/10/02 01:31:42;;;;;;;17.42;6.80;;;;;;;20.13;57.50;101956.66;4948034;28;126500;-79
2023/10/02 01:34:25;;;;;;;15.65;6.03;;;;;;;20.09;57.39;101949.75;4953945;28;123922;-79
2023/10/02 01:36:52;;;;;;;16.60;6.57;;;;;;;20.07;57.40;101962.44;4964927;28;108304;-79
2023/10/02 01:39:21;;;;;;;17.20;6.72;;;;;;;20.03;57.48;101954.56;4951373;28;109436;-79
2023/10/02 01:41:52;;;;;;;13.32;5.95;;;;;;;19.99;57.68;101961.13;4924514;28;123440;-79
2023/10/02 01:44:24;;;;;;;15.38;6.28;;;;;;;19.96;57.61;101955.94;4953333;28;124263;-78
2023/10/02 01:46:52;;;;;;;16.27;6.55;;;;;;;19.93;57.86;101961.56;4940732;28;108839;-79
2023/10/02 01:49:26;;;;;;;19.23;6.68;;;;;;;19.90;57.81;101956.38;4964459;28;107976;-79
2023/10/02 01:52:01;;;;;;;14.10;6.00;;;;;;;19.88;57.81;101952.94;4949007;28;124761;-79
2023/10/02 01:54:31;;;;;;;;;;;;;;;19.84;57.45;101956.78;4943407;28;122834;-80
2023/10/02 01:57:04;;;;;;;14.88;6.40;;;;;;;19.82;57.46;101953.34;4947457;28;111161;-79
2023/10/02 01:59:32;;;;;;;17.45;6.65;;;;;;;19.80;57.60;101955.28;4950497;28;110432;-78
2023/10/02 02:02:12;;;;;;;18.02;6.82;;;;;;;19.78;57.92;101951.81;4947063;28;123377;-79
2023/10/02 02:04:42;;;;;;;17.95;7.07;;;;;;;19.75;58.09;101949.31;4932074;28;125114;-78
2023/10/02 02:07:09;;;;;;;14.88;6.68;;;;;;;19.72;58.14;101952.19;4952308;28;108480;-78
2023/10/02 02:09:37;;;;;;;17.15;6.78;;;;;;;19.70;58.12;101944.22;4935631;28;107425;-77
2023/10/02 02:12:07;;;;;;;16.17;6.72;;;;;;;19.68;58.10;101945.28;4951212;28;124573;-78
2023/10/02 02:14:52;;;;;;;14.88;6.63;;;;;;;19.64;58.26;101950.00;4943691;28;123912;-78
2023/10/02 02:17:22;;;;;;;16.83;6.63;;;;;;;19.62;58.17;101952.78;4952261;28;108634;-78
2023/10/02 02:19:55;;;;;;;17.75;7.03;;;;;;;19.61;58.35;101945.69;4950709;28;110114;-78
2023/10/02 02:22:26;;;;;;;15.85;6.90;;;;;;;19.60;58.49;101943.97;4950291;28;122828;-78
2023/10/02 02:25:00;;;;;;;17.70;6.72;;;;;;;19.58;58.45;101943.19;4937880;28;123073;-78
2023/10/02 02:27:28;;;;;;;16.55;6.72;;;;;;;19.59;58.49;101953.00;4935524;28;108478;-78
2023/10/02 02:29:57;;;;;;;14.48;6.20;;;;;;;19.58;58.55;101940.50;4945065;28;108967;-77
2023/10/02 02:35:27;;;;;;;15.68;6.38;;;;;;;19.54;58.70;101936.31;4923004;28;123054;-78
2023/10/02 02:37:56;;;;;;;15.35;7.00;;;;;;;19.55;58.43;101940.72;4933823;28;108174;-78
2023/10/02 02:40:25;;;;;;;17.65;7.30;;;;;;;19.53;58.64;101931.88;4952237;28;112037;-79
2023/10/02 02:42:54;;;;;;;14.15;6.63;;;;;;;19.51;58.55;101933.81;4951636;28;123253;-78
2023/10/02 02:45:29;;;;;;;18.02;7.35;;;;;;;19.49;58.63;101943.78;4944220;28;123933;-78
2023/10/02 02:48:06;;;;;;;17.95;6.88;;;;;;;19.48;58.77;101944.78;4943309;28;110256;-78
2023/10/02 02:50:37;;;;;;;;;;;;;;;19.44;58.45;101932.50;4932730;28;109536;-77
2023/10/02 02:53:17;;;;;;;17.83;7.05;;;;;;;19.46;58.47;101930.59;4933217;28;124437;-78
2023/10/02 02:55:45;;;;;;;17.52;6.90;;;;;;;19.45;58.65;101928.84;4929295;28;123911;-78
2023/10/02 02:58:13;;;;;;;16.25;6.70;;;;;;;19.44;58.60;101932.50;4948921;28;108312;-78
2023/10/02 03:00:40;;;;;;;15.93;6.88;;;;;;;19.43;58.56;101930.78;4949960;28;108600;-78
2023/10/02 03:05:58;;;;;;;18.25;7.30;;;;;;;19.41;58.90;101921.94;4950184;28;124555;-78
2023/10/02 03:08:37;;;;;;;17.55;7.30;;;;;;;19.39;59.00;101913.13;4951173;28;109136;-78
2023/10/02 03:11:08;;;;;;;16.40;7.45;;;;;;;19.39;59.03;101913.13;4950322;28;108746;-78
2023/10/02 03:13:36;;;;;;;13.85;6.45;;;;;;;19.42;59.14;101912.91;4951263;28;124136;-78
2023/10/02 03:16:10;;;;;;;15.13;6.78;;;;;;;19.40;59.05;101904.09;4956557;28;123772;-78
2023/10/02 03:18:38;;;;;;;15.50;6.30;;;;;;;19.40;58.88;101904.09;4941661;28;108820;-78
2023/10/02 03:23:39;;;;;;;19.27;7.00;;;;;;;19.39;59.04;101908.63;4947548;28;124421;-78
2023/10/02 03:26:27;;;;;;;17.35;7.13;;;;;;;19.39;59.16;101897.00;4956134;28;123025;-78
2023/10/02 03:29:02;;;;;;;19.17;7.50;;;;;;;19.38;58.94;101906.03;4949133;28;108599;-78
2023/10/02 03:31:40;;;;;;;15.52;7.13;;;;;;;19.36;59.24;101891.81;4950555;28;108553;-79
2023/10/02 03:36:59;;;;;;;14.93;6.63;;;;;;;19.33;59.35;101897.41;4954121;28;123050;-78
2023/10/02 03:42:22;;;;;;;17.65;7.57;;;;;;;19.32;59.23;101903.75;4940390;28;108954;-78
2023/10/02 03:44:50;;;;;;;16.27;6.88;;;;;;;19.33;59.21;101897.41;4950909;28;124345;-78
2023/10/02 03:47:18;;;;;;;16.35;6.65;;;;;;;19.33;59.20;101897.41;4951287;28;124334;-78
2023/10/02 03:49:46;;;;;;;20.20;7.53;;;;;;;19.34;59.53;101893.75;4947752;28;107358;-78
2023/10/02 03:52:16;;;;;;;19.50;7.00;;;;;;;19.33;59.21;101886.69;4950835;28;109000;-78
2023/10/02 03:54:45;;;;;;;15.60;6.65;;;;;;;19.33;59.25;101897.41;4933745;28;123862;-78
2023/10/02 03:57:37;;;;;;;15.27;6.93;;;;;;;19.32;59.03;101895.69;4949184;28;123467;-78
2023/10/02 04:00:26;;;;;;;19.63;7.05;;;;;;;19.28;59.21;101891.47;4934093;28;110186;-78
2023/10/02 04:02:56;;;;;;;19.25;6.40;;;;;;;19.24;59.29;101883.59;4952019;28;108622;-78
2023/10/02 04:05:42;;;;;;;17.25;6.70;;;;;;;19.23;59.24;101898.03;4952248;28;123773;-78
2023/10/02 04:08:31;;;;;;;16.52;6.65;;;;;;;19.21;59.13;101894.56;4963566;28;124156;-78
2023/10/02 04:11:03;;;;;;;16.75;6.55;;;;;;;19.21;59.36;101894.56;4935860;28;109001;-78
2023/10/02 04:13:33;;;;;;;15.23;6.55;;;;;;;19.22;59.43;101896.28;4953360;28;109396;-78
2023/10/02 04:18:49;;;;;;;18.20;6.60;;;;;;;19.24;59.51;101888.97;4960759;28;124445;-79
2023/10/02 04:21:25;;;;;;;18.65;6.75;;;;;;;19.27;59.52;101887.94;4952815;28;109484;-78
2023/10/02 04:23:53;;;;;;;15.93;6.90;;;;;;;19.30;59.56;101886.88;4959743;28;108127;-77
2023/10/02 04:26:22;;;;;;;18.38;7.03;;;;;;;19.32;59.49;101884.94;4906782;28;122890;-78
2023/10/02 04:28:56;;;;;;;15.75;6.65;;;;;;;19.34;59.47;101891.06;4952444;28;123737;-78
2023/10/02 04:31:30;;;;;;;17.95;6.60;;;;;;;19.35;59.67;101895.50;4933754;28;110438;-78
2023/10/02 04:36:44;;;;;;;19.13;7.32;;;;;;;19.37;59.77;101893.56;4966319;28;124714;-78
2023/10/02 04:39:52;;;;;;;17.00;6.82;;;;;;;19.38;59.65;101889.91;4968481;28;123072;-78
2023/10/02 04:42:12;;;;;;;17.83;6.53;;;;;;;19.39;59.69;101886.28;4942090;28;109143;-77
2023/10/02 04:44:44;;;;;;;18.08;7.45;;;;;;;19.42;59.42;101886.03;4953689;28;108761;-78
2023/10/02 04:47:20;;;;;;;19.40;7.32;;;;;;;19.41;59.49;101890.56;4967925;28;123129;-78
2023/10/02 04:55:25;;;;;;;16.02;6.95;;;;;;;19.42;59.36;101891.41;4929318;28;107931;-78
2023/10/02 04:57:54;;;;;;;24.10;7.03;;;;;;;19.41;59.54;101889.72;4950638;28;123985;-78
2023/10/02 05:03:22;;;;;;;20.33;7.75;;;;;;;19.42;59.43;101896.78;4923529;28;109459;-81
2023/10/02 05:05:53;;;;;;;17.65;6.90;;;;;;;19.40;59.40;101904.09;4949527;28;109531;-79
2023/10/02 05:08:29;;;;;;;17.08;6.93;;;;;;;19.40;59.49;101894.22;4962943;28;122314;-78
2023/10/02 05:10:56;;;;;;;19.10;7.07;;;;;;;19.40;59.26;101901.41;4952013;28;124225;-78
2023/10/02 05:16:12;;;;;;;20.33;7.18;;;;;;;19.34;59.20;101894.59;4954280;28;108365;-78
2023/10/02 05:18:47;;;;;;;16.27;6.85;;;;;;;19.31;59.59;101889.47;4944529;28;124212;-78
2023/10/02 05:21:16;;;;;;;18.23;7.07;;;;;;;19.28;59.17;101891.47;4944088;28;123600;-78
2023/10/02 05:23:57;;;;;;;18.77;6.85;;;;;;;19.23;59.30;101892.66;4929759;28;109499;-78
2023/10/02 05:26:34;;;;;;;18.83;6.25;;;;;;;19.21;59.31;101891.88;4933879;28;109832;-77
2023/10/02 05:29:05;;;;;;;18.88;6.75;;;;;;;19.20;59.18;101891.97;4946785;28;123929;-77
2023/10/02 05:31:40;;;;;;;16.13;6.78;;;;;;;19.16;59.13;101883.25;4950141;28;122973;-79
2023/10/02 05:34:09;;;;;;;19.08;7.20;;;;;;;19.15;58.96;101886.88;4946623;28;108749;-78
2023/10/02 05:36:54;;;;;;;18.88;7.30;;;;;;;19.13;59.12;101896.00;4943767;28;107863;-78
2023/10/02 05:39:28;;;;;;;16.65;6.97;;;;;;;19.12;59.27;101900.53;4948742;28;124464;-78
2023/10/02 05:42:05;;;;;;;17.40;6.80;;;;;;;19.10;59.15;101901.56;4928978;28;124023;-78
2023/10/02 05:44:36;;;;;;;19.25;7.43;;;;;;;19.09;59.05;101906.09;4941196;28;109031;-81
2023/10/02 05:47:07;;;;;;;16.67;7.13;;;;;;;19.05;59.32;101900.06;4944013;28;109462;-79
2023/10/02 05:49:37;;;;;;;19.35;6.75;;;;;;;19.03;59.27;101903.81;4948927;28;125305;-79
2023/10/02 05:52:07;;;;;;;29.20;7.32;;;;;;;19.02;58.99;101910.13;4944473;28;123746;-80
2023/10/02 05:54:47;;;;;;;21.88;8.05;;;;;;;18.99;59.28;101910.34;4946258;28;108999;-80
2023/10/02 05:57:15;;;;;;;20.63;7.38;;;;;;;18.97;59.45;101909.56;4933154;28;108861;-79
2023/10/02 05:59:45;;;;;;;18.25;7.43;;;;;;;18.96;59.56;101905.16;4933598;28;123537;-80
2023/10/02 06:02:20;;;;;;;19.83;7.72;;;;;;;18.95;59.65;101908.78;4944222;28;124370;-78
2023/10/02 06:04:49;;;;;;;15.07;6.95;;;;;;;18.96;59.71;101910.53;4944789;28;108824;-78
2023/10/02 06:10:09;;;;;;;18.83;6.97;;;;;;;18.96;59.59;101910.53;4948678;28;123939;-79
2023/10/02 06:12:42;;;;;;;20.08;6.90;;;;;;;18.95;59.73;101919.53;4948662;28;123807;-79
2023/10/02 06:15:43;;;;;;;17.83;7.53;;;;;;;18.98;59.77;101916.66;4944837;28;110669;-79
2023/10/02 06:17:58;;;;;;;19.60;7.28;;;;;;;18.99;59.49;101916.56;4936936;28;107886;-79
2023/10/02 06:20:26;;;;;;;17.95;7.07;;;;;;;19.00;59.63;101909.34;4942587;28;124025;-79
2023/10/02 06:23:05;;;;;;;21.75;7.68;;;;;;;19.02;59.92;101910.13;4942873;28;123830;-79
2023/10/02 06:25:33;;;;;;;20.10;7.90;;;;;;;19.05;59.88;101915.31;4944033;28;109506;-79
2023/10/02 06:28:19;;;;;;;17.05;6.63;;;;;;;19.07;60.04;101918.75;4951469;28;108071;-77
2023/10/02 06:30:49;;;;;;;19.38;7.32;;;;;;;19.13;59.95;101918.34;4946829;28;123410;-78
2023/10/02 06:33:17;;;;;;;21.38;7.57;;;;;;;19.18;60.12;101921.63;4931743;28;122999;-81
2023/10/02 06:35:45;;;;;;;21.55;8.27;;;;;;;19.22;60.05;101923.13;4948642;28;109037;-79
2023/10/02 06:38:20;;;;;;;17.38;7.22;;;;;;;19.29;60.21;101928.09;4949577;28;109137;-78
2023/10/02 06:40:56;;;;;;;21.92;8.45;;;;;;;19.33;60.08;101924.28;4944054;28;123099;-78
2023/10/02 06:43:28;;;;;;;18.35;7.50;;;;;;;19.41;60.12;101927.31;4952736;28;124463;-79
2023/10/02 06:46:07;;;;;;;21.25;7.95;;;;;;;19.47;60.30;101921.53;4949175;28;109639;-79
2023/10/02 06:48:39;;;;;;;18.90;7.28;;;;;;;19.52;60.09;101921.25;4947045;28;109032;-80
2023/10/02 06:51:07;;;;;;;19.40;7.40;;;;;;;19.59;60.23;101926.13;4945372;28;124131;-79
2023/10/02 06:53:34;;;;;;;20.67;8.13;;;;;;;19.67;60.01;101930.13;4947103;28;123065;-79
2023/10/02 06:56:07;;;;;;;21.25;8.32;;;;;;;19.72;60.11;101928.91;4945167;28;109287;-79
2023/10/02 06:58:50;;;;;;;22.30;8.10;;;;;;;19.80;60.05;101925.69;4952186;28;107104;-79
2023/10/02 07:01:27;;;;;;;19.77;7.45;;;;;;;19.86;60.00;101922.59;4945256;28;123971;-79
2023/10/02 07:03:56;;;;;;;20.52;8.30;;;;;;;19.94;59.96;101922.94;4947000;28;123878;-80
2023/10/02 07:06:24;;;;;;;22.38;8.38;;;;;;;20.00;60.00;101914.47;4960288;28;110124;-79
2023/10/02 07:09:11;;;;;;;19.75;8.50;;;;;;;20.10;59.92;101925.44;4939556;28;109301;-79
2023/10/02 07:11:43;;;;;;;22.30;8.55;;;;;;;20.18;60.02;101924.94;4962479;28;124020;-79
2023/10/02 07:14:12;;;;;;;20.77;7.82;;;;;;;20.28;60.05;101928.69;4950307;28;123801;-79
2023/10/02 07:16:39;;;;;;;15.95;7.40;;;;;;;20.35;59.82;101930.00;4933732;28;108791;-79
2023/10/02 07:19:07;;;;;;;20.90;7.93;;;;;;;20.42;59.70;101931.31;4957136;28;108261;-79
2023/10/02 07:21:35;;;;;;;21.23;8.85;;;;;;;20.51;59.74;101928.94;4947342;28;121740;-79
2023/10/02 07:24:03;;;;;;;19.00;7.20;;;;;;;20.60;59.58;101922.94;4947613;28;122727;-76
2023/10/02 07:26:51;;;;;;;24.10;7.85;;;;;;;20.68;59.48;101925.09;4948908;28;109397;-76
2023/10/02 07:29:19;;;;;;;20.00;7.93;;;;;;;20.76;59.50;101928.13;4954999;28;109399;-79
2023/10/02 07:31:47;;;;;;;20.00;7.95;;;;;;;20.85;59.42;101931.97;4932180;28;123625;-79
2023/10/02 07:34:15;;;;;;;18.52;7.13;;;;;;;20.95;59.11;101922.28;4949589;28;123280;-80
2023/10/02 07:36:46;;;;;;;18.05;8.32;;;;;;;21.03;59.14;101922.56;4948377;28;108969;-79
2023/10/02 07:42:06;;;;;;;20.50;8.57;;;;;;;21.17;58.97;101922.44;4926372;28;123238;-81
2023/10/02 07:44:37;;;;;;;19.80;8.13;;;;;;;21.27;58.93;101924.47;4937695;28;123557;-79
2023/10/02 07:47:16;;;;;;;22.75;8.32;;;;;;;21.34;58.71;101923.91;4955747;28;107062;-79
2023/10/02 07:49:55;;;;;;;22.75;8.60;;;;;;;21.42;58.64;101931.44;4934427;28;108161;-80
2023/10/02 07:52:35;;;;;;;19.50;8.30;;;;;;;21.51;58.78;101925.38;4943586;28;123203;-79
2023/10/02 07:55:10;;;;;;;20.87;8.13;;;;;;;21.62;58.61;101926.41;4961459;28;124278;-79
2023/10/02 07:57:38;;;;;;;22.38;8.25;;;;;;;21.70;58.61;101924.00;4951682;28;109575;-79
2023/10/02 08:00:33;;;;;;;20.52;9.00;;;;;;;21.81;58.54;101932.13;4936787;28;109152;-80
2023/10/02 08:03:02;;;;;;;19.17;7.97;;;;;;;21.93;58.41;101923.13;4951763;28;123624;-79
2023/10/02 08:05:33;;;;;;;20.73;8.25;;;;;;;22.05;58.43;101917.78;4938682;28;123294;-79
2023/10/02 08:08:10;;;;;;;19.70;8.48;;;;;;;22.16;58.20;101920.50;4939115;28;108959;-79
2023/10/02 08:10:50;;;;;;;19.15;7.93;;;;;;;22.27;58.29;101922.41;4961096;28;107918;-79
2023/10/02 08:13:17;;;;;;;20.33;8.05;;;;;;;22.35;57.92;101920.81;4956778;28;123572;-77
2023/10/02 08:15:49;;;;;;;19.85;8.05;;;;;;;22.42;57.64;101925.75;4929806;28;122508;-78
2023/10/02 08:18:19;;;;;;;22.40;8.35;;;;;;;22.47;57.65;101923.53;4931757;28;108495;-78
2023/10/02 08:20:48;;;;;;;19.98;7.60;;;;;;;22.51;57.23;101914.25;4942589;28;109177;-78
2023/10/02 08:23:21;;;;;;;20.83;8.52;;;;;;;22.56;57.23;101917.41;4945391;28;124083;-78
2023/10/02 08:26:02;;;;;;;21.33;8.63;;;;;;;22.61;57.29;101919.78;4935751;28;125419;-78
2023/10/02 08:28:35;;;;;;;21.88;8.48;;;;;;;22.66;57.16;101918.44;4940879;28;109294;-78
2023/10/02 08:31:02;;;;;;;23.30;8.93;;;;;;;22.71;57.18;101920.75;4947855;28;109372;-78
2023/10/02 08:33:30;;;;;;;19.83;8.43;;;;;;;22.76;56.94;101928.50;4929534;28;124244;-78
2023/10/02 08:36:19;;;;;;;22.25;9.13;;;;;;;22.82;57.14;101928.84;4943931;28;125375;-78
2023/10/02 08:38:49;;;;;;;22.08;8.15;;;;;;;22.91;56.96;101938.06;4931759;28;108926;-78
2023/10/02 08:41:21;;;;;;;21.27;7.90;;;;;;;23.00;57.28;101937.34;4950423;28;108491;-78
2023/10/02 08:43:48;;;;;;;20.70;8.70;;;;;;;23.10;56.91;101935.63;4941577;28;124476;-77
2023/10/02 08:46:24;;;;;;;21.35;8.57;;;;;;;;;;4944291;28;123188;-78
2023/10/02 08:48:57;;;;;;;19.52;8.95;;;;;;;23.26;56.66;101931.69;4939307;28;110107;-78
2023/10/02 08:51:36;;;;;;;24.55;9.23;;;;;;;23.31;56.19;101926.75;4953116;28;109849;-78
2023/10/02 08:54:05;;;;;;;23.52;9.02;;;;;;;23.36;56.34;101921.84;4947634;28;124139;-79
2023/10/02 08:56:44;;;;;;;25.67;9.27;;;;;;;23.46;56.33;101924.63;4939607;28;122886;-79
2023/10/02 08:59:27;;;;;;;24.13;9.80;;;;;;;23.55;56.27;101915.78;4941749;28;109462;-78
2023/10/02 09:02:16;;;;;;;24.13;9.30;;;;;;;23.65;55.90;101918.56;4932191;28;107460;-78
2023/10/02 09:04:53;;;;;;;25.13;9.70;;;;;;;23.74;56.09;101920.50;4949544;28;123397;-78
2023/10/02 09:10:24;;;;;;;23.70;9.73;;;;;;;23.99;56.18;101907.63;4958302;28;109292;-78
2023/10/02 09:13:16;;;;;;;22.88;9.27;;;;;;;24.15;56.18;101918.88;4954551;28;109417;-78
2023/10/02 09:15:45;;;;;;;24.13;9.13;;;;;;;24.26;55.77;101913.38;4953966;28;124231;-78
2023/10/02 09:18:57;;;;;;;18.85;8.32;;;;;;;24.35;55.46;101900.03;4942708;28;124352;-78
2023/10/02 09:21:22;;;;;;;19.77;8.32;;;;;;;24.46;55.32;101905.38;4943835;28;108337;-78
2023/10/02 09:23:51;;;;;;;24.33;9.23;;;;;;;24.53;55.00;101906.59;4961736;28;107185;-78
2023/10/02 09:26:26;;;;;;;20.83;8.57;;;;;;;24.59;54.90;101911.47;4947435;28;123457;-78
2023/10/02 09:29:00;;;;;;;22.55;8.98;;;;;;;24.65;54.68;101900.06;4942860;28;124509;-79
2023/10/02 09:31:34;;;;;;;21.52;8.02;;;;;;;24.71;54.42;101901.38;4945380;28;114652;-78
2023/10/02 09:34:16;;;;;;;21.33;8.75;;;;;;;24.79;54.25;101906.13;4949766;28;113943;-78
2023/10/02 09:37:11;;;;;;;20.88;8.23;;;;;;;24.86;54.18;101907.28;4925640;28;123640;-79
2023/10/02 09:40:14;;;;;;;23.80;8.45;;;;;;;24.93;54.06;101913.88;4939600;28;124348;-78
2023/10/02 09:42:48;;;;;;;19.73;8.55;;;;;;;24.97;54.10;101907.19;4933722;28;114318;-78
2023/10/02 09:45:17;;;;;;;19.50;8.07;;;;;;;25.02;54.34;101902.22;4947998;28;115118;-77
2023/10/02 09:47:44;;;;;;;22.67;8.82;;;;;;;25.08;54.27;101905.38;4951163;28;122865;-78
2023/10/02 09:50:30;;;;;;;23.40;8.88;;;;;;;25.12;54.15;101901.41;4946409;28;123930;-78
2023/10/02 09:53:08;;;;;;;22.08;8.38;;;;;;;25.15;53.90;101895.72;4940907;28;114260;-78
2023/10/02 09:55:44;;;;;;;25.90;9.35;;;;;;;25.17;53.63;101888.28;4942888;28;114249;-78
2023/10/02 09:58:27;;;;;;;19.42;8.27;;;;;;;25.21;53.79;101889.72;4930787;28;125037;-78
2023/10/02 10:03:54;;;;;;;21.13;8.05;;;;;;;25.30;53.71;101883.50;4944872;28;115172;-77
2023/10/02 10:06:28;;;;;;;17.85;7.28;;;;;;;25.37;53.70;101895.50;4947129;28;113845;-77
2023/10/02 10:11:44;;;;;;;19.38;8.13;;;;;;;25.45;53.42;101887.50;4940726;28;124327;-77
2023/10/02 10:14:35;;;;;;;19.25;7.53;;;;;;;25.49;53.68;101888.09;4942049;28;113528;-77
2023/10/02 10:17:12;;;;;;;19.38;7.70;;;;;;;25.54;53.29;101890.34;4951715;28;113262;-77
2023/10/02 10:20:18;;;;;;;17.67;7.18;;;;;;;25.59;53.11;101888.09;4941662;28;125219;-78
2023/10/02 10:22:55;;;;;;;16.40;7.00;;;;;;;25.62;52.99;101887.81;4929427;28;122257;-77
2023/10/02 10:25:22;;;;;;;18.02;7.50;;;;;;;25.68;53.29;101887.22;4942016;28;113664;-77
2023/10/02 10:27:55;;;;;;;16.85;7.57;;;;;;;25.75;53.38;101893.81;4941710;28;113045;-77
2023/10/02 10:30:26;;;;;;;18.13;7.35;;;;;;;25.80;52.96;101896.94;4933290;28;123608;-77
2023/10/02 10:33:15;;;;;;;17.60;7.65;;;;;;;25.84;52.75;101882.09;4945388;28;123675;-78
2023/10/02 10:35:57;;;;;;;20.45;7.78;;;;;;;25.89;52.79;101883.50;4945927;28;115014;-77
2023/10/02 10:38:36;;;;;;;18.42;7.63;;;;;;;25.97;52.68;101878.25;4950068;28;116014;-77
2023/10/02 10:41:09;;;;;;;16.92;7.78;;;;;;;26.01;52.37;101882.38;4939999;28;122990;-77
2023/10/02 10:46:27;;;;;;;19.70;8.23;;;;;;;26.10;52.20;101876.06;4948066;28;114695;-78
2023/10/02 10:49:10;;;;;;;19.48;8.15;;;;;;;26.11;52.25;101875.09;4946399;28;114262;-77
2023/10/02 10:51:38;;;;;;;20.60;8.43;;;;;;;26.14;51.75;101877.50;4931956;28;122902;-79
2023/10/02 10:54:13;;;;;;;20.33;8.00;;;;;;;26.17;51.84;101877.22;4947352;28;123897;-78
2023/10/02 11:00:25;;;;;;;17.83;8.20;;;;;;;26.20;52.15;101871.50;4898347;28;112145;-79
2023/10/02 11:03:00;;;;;;;19.48;8.55;;;;;;;26.22;51.68;101869.50;4929607;28;123830;-79
2023/10/02 11:05:33;;;;;;;20.08;8.43;;;;;;;26.26;51.74;101870.06;4946491;28;123521;-79
2023/10/02 11:08:10;;;;;;;17.35;7.40;;;;;;;26.32;51.65;101865.91;4955181;28;114427;-79
2023/10/02 11:10:38;;;;;;;19.63;8.35;;;;;;;26.37;51.78;101866.28;4941593;28;112067;-79
2023/10/02 11:13:08;;;;;;;18.73;8.05;;;;;;;26.42;51.78;101864.00;4960683;28;124619;-79
2023/10/02 11:15:58;;;;;;;21.80;8.43;;;;;;;26.47;52.05;101860.84;4961521;28;124857;-79
2023/10/02 11:18:28;;;;;;;20.27;8.25;;;;;;;26.52;51.92;101853.97;4956646;28;114003;-79
2023/10/02 11:20:57;;;;;;;18.73;7.65;;;;;;;26.56;51.87;101860.78;4959267;28;113844;-79
2023/10/02 11:23:39;;;;;;;17.60;7.55;;;;;;;26.61;51.67;101858.50;4954912;28;125110;-79
2023/10/02 11:26:13;;;;;;;22.92;8.90;;;;;;;26.66;51.73;101843.63;4954109;28;123872;-79
2023/10/02 11:28:42;;;;;;;20.25;8.43;;;;;;;26.69;51.73;101838.75;4935286;28;115801;-78
2023/10/02 11:31:29;;;;;;;19.13;8.13;;;;;;;26.73;51.54;101844.72;4952099;28;114390;-79
2023/10/02 11:34:01;;;;;;;18.60;7.75;;;;;;;26.74;51.53;101836.41;4953475;28;124260;-79
2023/10/02 11:36:54;;;;;;;23.42;8.27;;;;;;;26.78;51.48;101832.38;4925257;28;122959;-80
2023/10/02 11:39:27;;;;;;;17.73;7.93;;;;;;;26.84;51.57;101827.34;4942073;28;112288;-78
2023/10/02 11:41:55;;;;;;;18.80;7.75;;;;;;;26.88;51.19;101821.47;4910231;28;113166;-79
2023/10/02 11:44:23;;;;;;;17.73;7.47;;;;;;;26.93;51.22;101813.69;4944512;28;123812;-79
2023/10/02 11:46:50;;;;;;;20.45;8.68;;;;;;;26.98;51.27;101822.25;4942831;28;123687;-78
2023/10/02 11:49:17;;;;;;;17.60;7.63;;;;;;;27.05;51.11;101818.91;4947780;28;113292;-79
2023/10/02 11:51:44;;;;;;;18.80;7.68;;;;;;;27.11;51.50;101826.47;4946854;28;113874;-78
2023/10/02 11:54:13;;;;;;;19.15;7.43;;;;;;;27.19;51.49;101823.84;4949202;28;125406;-78
2023/10/02 11:56:42;;;;;;;16.38;7.65;;;;;;;27.27;51.22;101815.78;4930815;28;123988;-78
2023/10/02 11:59:14;;;;;;;19.38;7.72;;;;;;;27.36;51.17;101812.13;4948597;28;114576;-78
2023/10/02 12:01:47;;;;;;;21.33;9.50;;;;;;;27.43;50.65;101814.25;4930829;28;114240;-80
2023/10/02 12:04:15;;;;;;;17.08;8.45;;;;;;;27.45;50.71;101802.19;4938612;28;123156;-78
2023/10/02 12:06:42;;;;;;;23.85;9.52;;;;;;;27.54;51.01;101805.84;4943570;28;124270;-78
2023/10/02 12:09:17;;;;;;;21.38;8.23;;;;;;;27.65;51.11;101802.88;4944278;28;115342;-78
2023/10/02 12:11:45;;;;;;;18.60;7.97;;;;;;;27.76;51.25;101799.91;4943598;28;113790;-77
2023/10/02 12:14:12;;;;;;;18.25;8.25;;;;;;;27.89;50.93;101798.63;4934035;28;124374;-78
2023/10/02 12:16:40;;;;;;;16.75;7.45;;;;;;;27.98;50.72;101803.13;4945561;28;123655;-79
2023/10/02 12:19:10;;;;;;;18.90;7.70;;;;;;;28.06;50.65;101795.00;4946453;28;115894;-78
2023/10/02 12:21:37;;;;;;;19.02;7.57;;;;;;;28.17;50.69;101801.19;4945704;28;115270;-78
2023/10/02 12:24:07;;;;;;;18.00;7.47;;;;;;;28.24;50.55;101794.09;4952657;28;124064;-78
2023/10/02 12:26:34;;;;;;;17.35;7.07;;;;;;;28.30;50.40;101785.25;4950733;28;125577;-79
2023/10/02 12:29:02;;;;;;;14.75;6.15;;;;;;;28.34;50.18;101786.63;4944055;28;113361;-79
2023/10/02 12:31:30;;;;;;;17.27;7.10;;;;;;;28.39;50.10;101784.28;4953814;28;113757;-79
2023/10/02 12:34:00;;;;;;;16.35;7.18;;;;;;;28.43;50.09;101777.50;4962913;28;127216;-79
2023/10/02 12:36:27;;;;;;;16.48;6.68;;;;;;;28.50;50.01;101781.28;4963319;28;124154;-79